Time;durP1;ratioP1;P1;durP2;ratioP2;P2;SDS_P1;SDS_P2;PMS_P1;PMS_P2;Temp;Humidity;BMP_temperature;BMP_pressure;BME280_temperature;BME280_humidity;BME280_pressure;Samples;Min_cycle;Max_cycle;Signal;HPM_P1;HPM_P2
2022/12/15 00:38:53;;;;;;;33.93;20.47;;;-0.50;99.90;;;;;;4994299;28;20186;-89
2022/12/15 00:41:22;;;;;;;33.00;20.77;;;-0.50;99.90;;;;;;4975683;28;20272;-89
2022/12/15 00:43:48;;;;;;;34.43;21.27;;;-0.50;99.90;;;;;;4979856;28;20268;-88
2022/12/15 00:48:59;;;;;;;35.43;20.63;;;-0.50;99.90;;;;;;4979327;28;20183;-89
2022/12/15 01:21:43;;;;;;;34.20;21.43;;;-0.50;99.90;;;;;;4978861;28;20241;-89
2022/12/15 01:24:08;;;;;;;34.17;21.03;;;-0.50;99.90;;;;;;4962416;28;20669;-89
2022/12/15 01:26:34;;;;;;;35.50;20.73;;;-0.60;99.90;;;;;;4962642;28;20287;-90
2022/12/15 01:29:00;;;;;;;29.90;19.67;;;-0.60;99.90;;;;;;4962563;28;20178;-89
2022/12/15 01:31:26;;;;;;;32.23;19.43;;;-0.60;99.90;;;;;;4963044;28;20178;-89
2022/12/15 01:33:54;;;;;;;31.67;20.27;;;-0.60;99.90;;;;;;4962704;28;20182;-89
2022/12/15 01:36:19;;;;;;;33.97;21.10;;;-0.70;99.90;;;;;;4962928;28;20194;-89
2022/12/15 01:38:45;;;;;;;36.37;20.70;;;-0.70;99.90;;;;;;4962297;28;20186;-89
2022/12/15 01:41:11;;;;;;;35.77;21.50;;;-0.70;99.90;;;;;;4965412;28;20188;-89
2022/12/15 01:43:39;;;;;;;35.53;21.47;;;-0.70;99.90;;;;;;4965984;28;20317;-89
2022/12/15 01:46:14;;;;;;;33.93;19.73;;;-0.70;99.90;;;;;;4960743;28;20212;-89
2022/12/15 01:48:50;;;;;;;34.53;20.47;;;-0.70;99.90;;;;;;4961319;28;20257;-89
2022/12/15 01:51:21;;;;;;;32.90;20.57;;;-0.70;99.90;;;;;;4962349;28;20182;-90
2022/12/15 01:53:50;;;;;;;35.30;21.03;;;-0.70;99.90;;;;;;4962372;28;20177;-89
2022/12/15 01:56:17;;;;;;;33.00;20.10;;;-0.70;99.90;;;;;;4962103;28;20241;-89
2022/12/15 01:58:46;;;;;;;32.60;20.03;;;-0.80;99.90;;;;;;4962240;28;20216;-89
2022/12/15 02:01:12;;;;;;;35.50;21.60;;;-0.70;99.90;;;;;;4978387;28;20191;-89
2022/12/15 02:03:40;;;;;;;34.50;21.43;;;-0.70;99.90;;;;;;4961320;28;20213;-89
2022/12/15 02:06:13;;;;;;;37.03;20.87;;;-0.60;99.90;;;;;;4962027;28;20181;-89
2022/12/15 02:08:43;;;;;;;35.60;21.80;;;-0.60;99.90;;;;;;4960706;28;20181;-89
2022/12/15 02:11:15;;;;;;;43.97;25.53;;;-0.60;99.90;;;;;;4962406;28;20190;-89
2022/12/15 02:13:50;;;;;;;36.27;23.00;;;-0.60;99.90;;;;;;4961660;28;20200;-89
2022/12/15 02:16:47;;;;;;;38.13;23.33;;;-0.60;99.90;;;;;;4962079;28;20208;-89
2022/12/15 02:19:35;;;;;;;32.37;20.37;;;-0.60;99.90;;;;;;4946485;28;20186;-89
2022/12/15 02:22:23;;;;;;;34.33;20.50;;;-0.60;99.90;;;;;;4961461;28;20198;-89
2022/12/15 02:25:21;;;;;;;33.13;20.83;;;-0.50;99.90;;;;;;4961238;28;20678;-89
2022/12/15 02:28:05;;;;;;;32.47;20.53;;;-0.50;99.90;;;;;;4953075;28;20221;-89
2022/12/15 02:33:50;;;;;;;33.77;21.23;;;-0.50;99.90;;;;;;4974457;28;20213;-89
2022/12/15 02:36:28;;;;;;;35.20;21.00;;;-0.50;99.90;;;;;;4974150;28;20203;-90
2022/12/15 02:38:54;;;;;;;32.97;19.43;;;-0.50;99.90;;;;;;4961633;28;20208;-89
2022/12/15 02:41:43;;;;;;;29.67;19.37;;;-0.50;99.90;;;;;;4960925;28;20278;-89
2022/12/15 02:44:17;;;;;;;35.70;20.87;;;-0.50;99.90;;;;;;4973334;28;20260;-89
2022/12/15 02:47:20;;;;;;;33.10;20.50;;;-0.60;99.90;;;;;;4975716;28;20196;-89
2022/12/15 02:49:45;;;;;;;36.13;20.67;;;-0.60;99.90;;;;;;4961096;28;20204;-89
2022/12/15 02:52:42;;;;;;;33.50;20.27;;;-0.60;99.90;;;;;;4961362;28;20207;-89
2022/12/15 02:55:45;;;;;;;33.27;20.27;;;-0.60;99.90;;;;;;4941431;28;20197;-89
2022/12/15 02:58:19;;;;;;;31.20;20.17;;;-0.60;99.90;;;;;;4940783;28;20216;-89
2022/12/15 03:00:56;;;;;;;31.93;20.00;;;-0.60;99.90;;;;;;4961269;28;20202;-89
2022/12/15 03:03:23;;;;;;;35.17;20.67;;;-0.60;99.90;;;;;;4961019;28;20232;-89
2022/12/15 03:05:53;;;;;;;34.47;20.90;;;-0.70;99.90;;;;;;4960888;28;20180;-89
2022/12/15 03:08:20;;;;;;;33.93;20.40;;;-0.80;99.90;;;;;;4959165;28;20210;-89
2022/12/15 03:10:48;;;;;;;34.97;20.50;;;-0.80;99.90;;;;;;4970923;28;20228;-89
2022/12/15 03:13:14;;;;;;;37.00;21.67;;;-0.80;99.90;;;;;;4961203;28;20287;-89
2022/12/15 03:15:40;;;;;;;33.07;20.23;;;-0.80;99.90;;;;;;4961095;28;20185;-89
2022/12/15 03:18:06;;;;;;;33.43;21.27;;;-0.70;99.90;;;;;;4960941;28;20674;-89
2022/12/15 03:20:32;;;;;;;36.40;20.97;;;-0.70;99.90;;;;;;4960982;28;20182;-90
2022/12/15 03:22:58;;;;;;;34.30;20.77;;;-0.60;99.90;;;;;;4960704;28;20228;-89
2022/12/15 03:25:24;;;;;;;37.97;21.03;;;-0.60;99.90;;;;;;4961003;28;20185;-89
2022/12/15 03:27:50;;;;;;;33.43;20.70;;;-0.50;99.90;;;;;;4960290;28;20265;-89
2022/12/15 03:30:16;;;;;;;35.43;21.67;;;-0.50;99.90;;;;;;4960651;28;20185;-89
2022/12/15 03:32:42;;;;;;;32.47;21.17;;;-0.50;99.90;;;;;;4960759;28;20178;-89
2022/12/15 03:35:08;;;;;;;36.07;21.20;;;-0.50;99.90;;;;;;4960099;28;20205;-89
2022/12/15 03:37:34;;;;;;;33.73;20.63;;;-0.50;99.90;;;;;;4960175;28;20223;-89
2022/12/15 03:40:00;;;;;;;31.93;19.37;;;-0.50;99.90;;;;;;4960491;28;20173;-89
2022/12/15 03:45:10;;;;;;;34.77;19.83;;;-0.50;99.90;;;;;;4975423;28;20187;-89
2022/12/15 03:47:40;;;;;;;33.23;20.07;;;-0.50;99.90;;;;;;4959527;28;20208;-89
2022/12/15 03:50:07;;;;;;;33.60;20.23;;;-0.40;99.90;;;;;;4959646;28;20181;-89
2022/12/15 03:52:34;;;;;;;32.67;20.40;;;-0.50;99.90;;;;;;4959108;28;20197;-89
2022/12/15 03:55:01;;;;;;;33.33;20.93;;;-0.50;99.90;;;;;;4957855;28;20229;-89
2022/12/15 03:57:27;;;;;;;33.03;20.27;;;-0.50;99.90;;;;;;4960743;28;20225;-89
2022/12/15 03:59:52;;;;;;;32.57;20.23;;;-0.50;99.90;;;;;;4959929;28;20213;-89
2022/12/15 04:02:21;;;;;;;33.53;20.57;;;-0.50;99.90;;;;;;4959484;28;20174;-89
2022/12/15 04:20:42;;;;;;;29.37;18.03;;;-0.40;99.90;;;;;;6232485;22;1438473;-89
2022/12/15 05:34:07;;;;;;;35.13;20.40;;;-0.50;99.90;;;;;;6343827;22;20152;-89
2022/12/15 05:36:32;;;;;;;34.03;20.83;;;-0.50;99.90;;;;;;6317627;22;20343;-89
2022/12/15 05:38:58;;;;;;;37.53;23.20;;;-0.50;99.90;;;;;;6317580;22;20235;-89
2022/12/15 05:41:24;;;;;;;32.40;20.47;;;-0.50;99.90;;;;;;6317965;22;20160;-89
2022/12/15 05:43:50;;;;;;;32.80;20.77;;;-0.50;99.90;;;;;;6317856;22;20172;-88
2022/12/15 05:46:16;;;;;;;35.27;20.57;;;-0.50;99.90;;;;;;6317893;22;20155;-88
2022/12/15 05:48:42;;;;;;;36.80;22.57;;;-0.50;99.90;;;;;;6317607;22;20160;-89
2022/12/15 05:51:09;;;;;;;35.90;22.37;;;-0.50;99.90;;;;;;6317854;22;20209;-89
2022/12/15 05:53:37;;;;;;;36.30;23.13;;;-0.50;99.90;;;;;;6317986;22;20158;-89
2022/12/15 05:56:09;;;;;;;39.43;22.27;;;-0.60;99.90;;;;;;6317534;22;20169;-89
2022/12/15 05:58:41;;;;;;;37.90;23.77;;;-0.60;99.90;;;;;;6317578;22;20174;-89
2022/12/15 06:01:13;;;;;;;38.57;22.70;;;-0.60;99.90;;;;;;6317045;22;20578;-90
2022/12/15 06:03:52;;;;;;;40.00;23.63;;;-0.60;99.90;;;;;;6311982;22;20187;-89
2022/12/15 06:06:18;;;;;;;40.80;23.10;;;-0.60;99.90;;;;;;6317675;22;20153;-89
2022/12/15 06:08:44;;;;;;;41.40;24.50;;;-0.60;99.90;;;;;;6316977;22;20159;-90
2022/12/15 06:11:12;;;;;;;40.60;24.50;;;-0.60;99.90;;;;;;6317037;22;20168;-89
2022/12/15 06:13:38;;;;;;;40.60;24.80;;;-0.60;99.90;;;;;;6311903;22;20159;-89
2022/12/15 06:16:08;;;;;;;41.97;24.60;;;-0.60;99.90;;;;;;6314019;22;20171;-90
2022/12/15 06:18:36;;;;;;;39.63;23.40;;;-0.60;99.90;;;;;;6314735;22;20180;-90
2022/12/15 06:21:04;;;;;;;41.07;23.57;;;-0.60;99.90;;;;;;6340526;22;20167;-89
2022/12/15 06:23:34;;;;;;;36.70;22.83;;;-0.60;99.90;;;;;;6314633;22;20187;-89
2022/12/15 06:26:26;;;;;;;41.10;23.10;;;-0.60;99.90;;;;;;6314619;22;20180;-90
2022/12/15 06:28:55;;;;;;;38.80;22.83;;;-0.60;99.90;;;;;;6314804;22;20155;-89
2022/12/15 06:31:21;;;;;;;39.07;22.73;;;-0.60;99.90;;;;;;6314481;22;20153;-90
2022/12/15 06:33:48;;;;;;;39.63;22.63;;;-0.70;99.90;;;;;;6314735;22;20161;-90
2022/12/15 06:36:16;;;;;;;38.77;23.20;;;-0.80;99.90;;;;;;6314895;22;20160;-90
2022/12/15 06:38:42;;;;;;;41.00;23.27;;;-0.80;99.90;;;;;;6314535;22;20629;-90
2022/12/15 06:41:12;;;;;;;39.50;23.07;;;-0.70;99.90;;;;;;6314311;22;20169;-86
2022/12/15 06:43:38;;;;;;;36.20;22.37;;;-0.70;99.90;;;;;;6314373;22;20184;-89
2022/12/15 06:46:05;;;;;;;41.03;24.60;;;-0.70;99.90;;;;;;6314074;22;20145;-89
2022/12/15 06:48:31;;;;;;;42.03;24.47;;;-0.70;99.90;;;;;;6315836;22;20172;-89
2022/12/15 06:51:03;;;;;;;40.83;23.67;;;-0.70;99.90;;;;;;6317525;22;20154;-89
2022/12/15 06:53:29;;;;;;;40.13;24.60;;;-0.70;99.90;;;;;;6343155;22;20152;-89
2022/12/15 06:56:04;;;;;;;39.67;23.00;;;-0.70;99.90;;;;;;6317380;22;20231;-89
2022/12/15 06:58:30;;;;;;;40.80;23.37;;;-0.70;99.90;;;;;;6317012;22;20210;-89
2022/12/15 07:00:56;;;;;;;42.57;23.33;;;-0.70;99.90;;;;;;6317630;22;20155;-90
2022/12/15 07:03:23;;;;;;;42.30;24.33;;;-0.70;99.90;;;;;;6319667;22;20216;-89
2022/12/15 07:06:10;;;;;;;41.63;23.67;;;-0.70;99.90;;;;;;6344475;22;20214;-90
2022/12/15 07:08:36;;;;;;;41.67;23.20;;;-0.70;99.90;;;;;;6316389;22;20222;-90
2022/12/15 07:11:21;;;;;;;41.20;23.17;;;-0.70;99.90;;;;;;6316830;22;20152;-90
2022/12/15 07:13:51;;;;;;;39.97;23.50;;;-0.70;99.90;;;;;;6317041;22;20258;-90
2022/12/15 07:16:27;;;;;;;41.67;23.77;;;-0.70;99.90;;;;;;6316213;22;20155;-90
2022/12/15 07:19:01;;;;;;;38.10;21.53;;;-0.70;99.90;;;;;;6316845;22;20160;-90
2022/12/15 07:21:27;;;;;;;41.87;23.83;;;-0.70;99.90;;;;;;6317390;22;20172;-90
2022/12/15 07:23:53;;;;;;;42.13;24.20;;;-0.70;99.90;;;;;;6316901;22;20560;-90
2022/12/15 07:26:19;;;;;;;38.77;22.70;;;-0.70;99.90;;;;;;6316979;22;20156;-90
2022/12/15 07:28:45;;;;;;;40.67;23.40;;;-0.70;99.90;;;;;;6316980;22;20151;-90
2022/12/15 07:31:11;;;;;;;39.30;24.40;;;-0.70;99.90;;;;;;6316673;22;20151;-90
2022/12/15 07:33:37;;;;;;;39.90;23.70;;;-0.70;99.90;;;;;;6316550;22;20155;-90
2022/12/15 07:36:04;;;;;;;42.57;24.67;;;-0.70;99.90;;;;;;6317222;22;20169;-90
2022/12/15 07:38:30;;;;;;;38.13;23.40;;;-0.60;99.90;;;;;;6342521;22;20167;-90
2022/12/15 07:41:00;;;;;;;39.17;22.80;;;-0.60;99.90;;;;;;6316428;22;20235;-90
2022/12/15 07:43:28;;;;;;;39.07;23.83;;;-0.60;99.90;;;;;;6316374;22;20261;-90
2022/12/15 07:45:54;;;;;;;43.83;23.80;;;-0.60;99.90;;;;;;6315670;22;20236;-90
2022/12/15 07:48:20;;;;;;;40.17;23.00;;;-0.50;99.90;;;;;;6316630;22;20196;-90
2022/12/15 07:50:46;;;;;;;40.90;23.13;;;-0.60;99.90;;;;;;6316603;22;20152;-90
2022/12/15 07:53:12;;;;;;;43.03;23.50;;;-0.50;99.90;;;;;;6316505;22;20206;-91
2022/12/15 07:55:38;;;;;;;37.70;22.57;;;-0.60;99.90;;;;;;6314117;22;20157;-90
2022/12/15 07:58:04;;;;;;;42.23;24.53;;;-0.50;99.90;;;;;;6315788;22;20243;-90
2022/12/15 08:00:30;;;;;;;44.13;24.47;;;-0.50;99.90;;;;;;6316399;22;20164;-90
2022/12/15 08:02:56;;;;;;;43.37;25.47;;;-0.40;99.90;;;;;;6315822;22;20156;-90
2022/12/15 08:05:22;;;;;;;41.93;24.80;;;-0.40;99.90;;;;;;6316336;22;20161;-90
2022/12/15 08:07:48;;;;;;;41.47;24.00;;;-0.30;99.90;;;;;;6315912;22;20180;-90
2022/12/15 08:10:14;;;;;;;36.47;22.03;;;-0.30;99.90;;;;;;6315982;22;20216;-90
2022/12/15 08:12:45;;;;;;;38.53;23.03;;;-0.20;99.90;;;;;;6315967;22;20158;-91
2022/12/15 08:15:11;;;;;;;38.47;23.37;;;-0.20;99.90;;;;;;6316614;22;20171;-90
2022/12/15 08:17:39;;;;;;;39.57;23.17;;;-0.30;99.90;;;;;;6316028;22;20173;-90
2022/12/15 08:20:05;;;;;;;36.20;22.30;;;-0.20;99.90;;;;;;6316548;22;20596;-91
2022/12/15 08:22:31;;;;;;;49.53;25.57;;;-0.20;99.90;;;;;;6316222;22;20169;-91
2022/12/15 08:24:57;;;;;;;45.10;24.33;;;-0.10;99.90;;;;;;6316093;22;20187;-91
2022/12/15 08:27:26;;;;;;;45.40;25.97;;;-0.10;99.90;;;;;;6316085;22;20199;-91
2022/12/15 08:29:53;;;;;;;43.43;24.80;;;0.00;99.90;;;;;;6317050;22;20162;-90
2022/12/15 08:32:20;;;;;;;40.47;24.27;;;0.10;99.90;;;;;;6316003;22;20177;-90
2022/12/15 08:34:48;;;;;;;37.93;23.00;;;0.10;99.90;;;;;;6315872;22;20160;-90
2022/12/15 08:37:14;;;;;;;43.50;24.90;;;0.10;99.90;;;;;;6315856;22;20185;-90
2022/12/15 08:39:41;;;;;;;42.13;24.83;;;0.30;99.90;;;;;;6317836;22;20165;-90
2022/12/15 08:42:07;;;;;;;39.10;24.00;;;0.30;99.90;;;;;;6316569;22;20181;-91
2022/12/15 08:44:33;;;;;;;38.27;22.43;;;0.40;99.90;;;;;;6316487;22;20193;-91
2022/12/15 08:46:59;;;;;;;40.87;22.53;;;0.40;99.90;;;;;;6316189;22;20180;-90
2022/12/15 08:49:25;;;;;;;37.97;21.43;;;0.50;99.90;;;;;;6315886;22;20232;-91
2022/12/15 08:51:51;;;;;;;37.57;21.50;;;0.60;99.90;;;;;;6318062;22;20221;-91
2022/12/15 08:54:18;;;;;;;35.43;22.13;;;0.60;99.90;;;;;;6318070;22;20164;-91
2022/12/15 08:56:44;;;;;;;38.37;21.80;;;0.80;99.90;;;;;;6318149;22;20188;-91
2022/12/15 08:59:09;;;;;;;39.07;22.80;;;0.90;99.90;;;;;;6317770;22;20157;-90
2022/12/15 09:01:38;;;;;;;39.80;23.10;;;1.00;99.90;;;;;;6318103;22;20158;-91
2022/12/15 09:04:05;;;;;;;36.67;22.07;;;1.10;99.90;;;;;;6318014;22;20224;-90
2022/12/15 09:06:33;;;;;;;37.60;21.70;;;1.10;99.90;;;;;;6318019;22;20154;-91
2022/12/15 09:09:03;;;;;;;31.90;20.07;;;1.20;99.90;;;;;;6317886;22;20178;-91
2022/12/15 09:12:00;;;;;;;31.37;19.80;;;1.10;99.90;;;;;;6317781;22;20165;-90
2022/12/15 09:14:28;;;;;;;33.20;21.13;;;1.20;99.90;;;;;;6317672;22;20157;-90
2022/12/15 09:16:54;;;;;;;35.47;21.27;;;1.20;99.90;;;;;;6318084;22;20180;-91
2022/12/15 09:19:37;;;;;;;30.33;19.27;;;1.20;99.90;;;;;;6343259;22;20296;-91
2022/12/15 09:22:06;;;;;;;33.77;21.80;;;1.30;99.90;;;;;;6318079;22;20174;-91
2022/12/15 09:25:01;;;;;;;32.83;20.13;;;1.20;99.90;;;;;;6343277;22;20185;-91
2022/12/15 09:27:29;;;;;;;36.00;21.43;;;1.10;99.90;;;;;;6343458;22;20178;-91
2022/12/15 09:29:57;;;;;;;34.43;21.00;;;0.90;99.90;;;;;;6317522;22;20217;-91
2022/12/15 09:32:31;;;;;;;33.67;21.67;;;1.00;99.90;;;;;;6317269;22;20150;-91
2022/12/15 09:34:57;;;;;;;37.07;23.93;;;1.10;99.90;;;;;;6318387;22;20166;-90
2022/12/15 09:37:23;;;;;;;34.27;21.13;;;1.10;99.90;;;;;;6318747;22;20574;-91
2022/12/15 09:39:49;;;;;;;32.60;21.03;;;1.10;99.90;;;;;;6316885;22;20166;-91
2022/12/15 09:42:24;;;;;;;34.07;21.47;;;1.10;99.90;;;;;;6317392;22;20185;-91
2022/12/15 09:45:16;;;;;;;34.67;21.13;;;0.90;99.90;;;;;;6317974;22;20182;-91
2022/12/15 09:48:04;;;;;;;32.17;20.77;;;0.80;99.90;;;;;;6317317;22;20173;-91
2022/12/15 09:50:38;;;;;;;32.93;20.67;;;0.90;99.90;;;;;;6339379;22;20154;-91
2022/12/15 09:53:16;;;;;;;34.47;21.97;;;0.90;99.90;;;;;;6317676;22;20165;-91
2022/12/15 09:55:47;;;;;;;36.43;22.23;;;1.00;99.90;;;;;;6317780;22;20153;-91
2022/12/15 09:58:28;;;;;;;34.20;21.27;;;0.90;99.90;;;;;;6317619;22;20270;-87
2022/12/15 10:01:11;;;;;;;35.17;22.10;;;1.00;99.90;;;;;;6318030;22;20169;-91
2022/12/15 10:03:43;;;;;;;34.40;22.00;;;1.10;99.90;;;;;;6317127;22;20260;-91
2022/12/15 10:06:33;;;;;;;36.80;22.23;;;1.30;99.90;;;;;;6314754;22;20476;-91
2022/12/15 10:09:03;;;;;;;36.00;21.63;;;1.50;99.90;;;;;;6314382;22;20595;-91
2022/12/15 10:11:44;;;;;;;34.63;21.97;;;1.50;99.90;;;;;;6314583;22;20157;-91
2022/12/15 10:14:22;;;;;;;37.13;23.40;;;1.60;99.90;;;;;;6314603;22;20219;-91
2022/12/15 10:16:57;;;;;;;35.97;22.27;;;1.60;99.90;;;;;;6340400;22;20179;-91
2022/12/15 10:20:08;;;;;;;38.80;24.13;;;1.70;99.90;;;;;;6314823;22;20166;-91
2022/12/15 10:26:13;;;;;;;36.17;22.83;;;1.90;99.90;;;;;;6342854;22;20155;-90
2022/12/15 10:28:52;;;;;;;35.90;22.13;;;2.00;99.90;;;;;;6318454;22;20169;-91
2022/12/15 10:31:41;;;;;;;38.00;22.83;;;2.00;99.90;;;;;;6317445;22;20157;-91
2022/12/15 10:34:15;;;;;;;35.13;22.37;;;1.90;99.90;;;;;;6343683;22;20204;-91
2022/12/15 10:36:50;;;;;;;35.37;21.33;;;1.90;99.90;;;;;;6317503;22;20238;-91
2022/12/15 10:39:16;;;;;;;35.13;22.40;;;1.90;99.90;;;;;;6316934;22;20171;-91
2022/12/15 10:41:42;;;;;;;36.83;21.93;;;1.90;99.90;;;;;;6316936;22;20233;-91
2022/12/15 10:44:24;;;;;;;32.30;20.97;;;1.90;99.90;;;;;;6317342;22;20202;-91
2022/12/15 10:46:55;;;;;;;33.43;21.77;;;1.90;99.90;;;;;;6317820;22;20178;-91
2022/12/15 10:49:23;;;;;;;34.93;21.97;;;1.80;99.90;;;;;;6317616;22;20151;-91
2022/12/15 10:51:59;;;;;;;34.50;21.70;;;1.80;99.90;;;;;;6317327;22;20229;-91
2022/12/15 10:54:43;;;;;;;36.83;22.50;;;1.80;99.90;;;;;;6316275;22;20153;-91
2022/12/15 10:57:27;;;;;;;35.83;22.77;;;1.80;99.90;;;;;;6316952;22;20179;-91
2022/12/15 11:00:13;;;;;;;38.50;22.23;;;1.90;99.90;;;;;;6317230;22;20150;-91
2022/12/15 11:02:48;;;;;;;36.30;22.80;;;2.00;99.90;;;;;;6291115;22;20179;-91
2022/12/15 11:05:16;;;;;;;37.93;22.43;;;2.00;99.90;;;;;;6316649;22;20290;-91
2022/12/15 11:07:48;;;;;;;36.40;23.20;;;2.00;99.90;;;;;;6316518;22;20231;-91
2022/12/15 11:10:23;;;;;;;40.53;24.13;;;2.10;99.90;;;;;;6316595;22;20186;-90
2022/12/15 11:13:13;;;;;;;40.60;23.20;;;2.00;99.90;;;;;;6341384;22;20158;-91
2022/12/15 11:15:40;;;;;;;37.40;22.17;;;2.00;99.90;;;;;;6316712;22;20188;-90
2022/12/15 11:18:34;;;;;;;38.27;23.57;;;2.00;99.90;;;;;;6316551;22;20182;-91
2022/12/15 11:21:31;;;;;;;38.47;23.97;;;2.00;99.90;;;;;;6342423;22;20188;-91
2022/12/15 11:24:34;;;;;;;35.73;21.80;;;2.00;99.90;;;;;;6316344;22;20280;-90
2022/12/15 11:27:25;;;;;;;42.87;23.73;;;2.00;99.90;;;;;;6316673;22;20182;-91
2022/12/15 11:29:58;;;;;;;38.80;23.83;;;1.90;99.90;;;;;;6342281;22;20150;-91
2022/12/15 11:32:28;;;;;;;41.20;23.73;;;2.00;99.90;;;;;;6342748;22;20139;-90
2022/12/15 11:34:55;;;;;;;46.27;25.93;;;2.10;99.90;;;;;;6317643;22;20150;-90
2022/12/15 11:37:59;;;;;;;40.93;26.37;;;2.20;99.90;;;;;;6316432;22;20179;-90
2022/12/15 11:40:38;;;;;;;39.00;24.67;;;2.30;99.90;;;;;;6163124;23;20162;-88
2022/12/15 11:43:33;;;;;;;42.87;25.03;;;2.30;99.90;;;;;;6188405;23;20244;-91
2022/12/15 11:46:20;;;;;;;43.77;25.43;;;2.30;99.90;;;;;;6279085;22;20151;-91
2022/12/15 11:49:05;;;;;;;41.27;24.83;;;2.40;99.90;;;;;;6342845;22;20187;-91
2022/12/15 11:51:52;;;;;;;42.97;25.67;;;2.30;99.90;;;;;;6316396;22;20150;-91
2022/12/15 11:54:18;;;;;;;45.13;27.03;;;2.30;99.90;;;;;;6316455;22;20165;-91
2022/12/15 11:56:46;;;;;;;46.63;29.00;;;2.30;99.90;;;;;;6316184;22;20174;-91
2022/12/15 11:59:37;;;;;;;40.97;25.00;;;2.30;99.90;;;;;;6316175;22;20166;-90
2022/12/15 12:02:19;;;;;;;38.93;23.27;;;2.40;99.90;;;;;;6316680;22;20159;-91
2022/12/15 12:05:17;;;;;;;37.13;23.00;;;2.50;99.90;;;;;;6341504;22;20232;-91
2022/12/15 12:07:51;;;;;;;40.07;24.50;;;2.60;99.90;;;;;;6316334;22;20251;-91
2022/12/15 12:10:28;;;;;;;39.00;23.60;;;2.70;99.90;;;;;;6315620;22;20150;-91
2022/12/15 12:13:12;;;;;;;47.47;28.17;;;2.70;99.90;;;;;;6316806;22;20147;-91
2022/12/15 12:16:01;;;;;;;51.67;27.77;;;2.60;99.90;;;;;;6316571;22;20180;-91
2022/12/15 12:18:47;;;;;;;47.73;26.80;;;2.70;99.90;;;;;;6316673;22;20178;-91
2022/12/15 12:25:16;;;;;;;36.10;23.03;;;2.90;99.90;;;;;;6369949;22;20268;-91
2022/12/15 12:27:57;;;;;;;36.97;22.63;;;2.80;99.90;;;;;;6318021;22;20197;-90
2022/12/15 12:30:27;;;;;;;35.30;21.87;;;2.50;99.90;;;;;;6318519;22;20158;-91
2022/12/15 12:33:02;;;;;;;36.13;21.23;;;2.60;99.90;;;;;;6317778;22;20215;-92
2022/12/15 12:35:57;;;;;;;35.30;21.80;;;2.80;99.90;;;;;;6318396;22;20147;-91
2022/12/15 12:38:30;;;;;;;39.37;22.40;;;2.90;99.90;;;;;;6317686;22;20194;-91
2022/12/15 12:41:07;;;;;;;33.87;20.67;;;3.00;99.90;;;;;;6317511;22;20154;-91
2022/12/15 12:43:37;;;;;;;34.57;22.07;;;3.00;99.90;;;;;;6316598;22;20178;-91
2022/12/15 12:46:16;;;;;;;35.97;21.67;;;2.90;99.90;;;;;;6318562;22;20182;-92
2022/12/15 12:48:50;;;;;;;34.97;22.20;;;2.90;99.90;;;;;;6318373;22;20145;-90
2022/12/15 12:51:25;;;;;;;31.03;20.57;;;2.90;99.90;;;;;;6318538;22;20160;-91
2022/12/15 12:53:51;;;;;;;36.63;22.97;;;2.90;99.90;;;;;;6318219;22;20157;-91
2022/12/15 12:56:43;;;;;;;37.53;22.90;;;2.80;99.90;;;;;;6318384;22;20159;-91
2022/12/15 12:59:27;;;;;;;33.97;20.23;;;2.70;99.90;;;;;;6318446;22;20186;-90
2022/12/15 13:02:24;;;;;;;34.17;21.07;;;2.70;99.90;;;;;;6319613;22;20158;-88
2022/12/15 13:05:02;;;;;;;32.33;21.37;;;2.60;99.90;;;;;;6317571;22;20178;-88
2022/12/15 13:07:37;;;;;;;37.70;22.67;;;2.50;99.90;;;;;;6317979;22;20208;-88
2022/12/15 13:10:21;;;;;;;44.13;25.93;;;2.40;99.90;;;;;;6317973;22;20139;-88
2022/12/15 13:12:50;;;;;;;38.43;23.40;;;2.40;99.90;;;;;;6318002;22;20154;-88
2022/12/15 13:15:28;;;;;;;36.87;23.17;;;2.40;99.90;;;;;;6317796;22;20158;-88
2022/12/15 13:18:05;;;;;;;36.23;23.33;;;2.40;99.90;;;;;;6317513;22;20185;-88
2022/12/15 13:20:36;;;;;;;37.57;24.00;;;2.40;99.90;;;;;;6317128;22;20191;-88
2022/12/15 13:23:20;;;;;;;39.53;23.20;;;2.40;99.90;;;;;;6317140;22;20170;-88
2022/12/15 13:25:52;;;;;;;37.33;23.33;;;2.30;99.90;;;;;;6318112;22;20158;-88
2022/12/15 13:28:22;;;;;;;39.00;24.77;;;2.30;99.90;;;;;;6316774;22;20224;-88
2022/12/15 13:31:27;;;;;;;39.37;24.20;;;2.30;99.90;;;;;;6316857;22;20207;-88
2022/12/15 13:34:01;;;;;;;37.60;22.97;;;2.30;99.90;;;;;;6163887;23;20158;-88
2022/12/15 13:36:36;;;;;;;48.63;27.00;;;2.30;99.90;;;;;;6163062;23;20165;-88
2022/12/15 13:39:24;;;;;;;40.47;26.93;;;2.20;99.90;;;;;;6254387;22;20158;-88
2022/12/15 13:41:50;;;;;;;40.20;25.23;;;2.20;99.90;;;;;;6316425;22;20162;-88
2022/12/15 13:44:30;;;;;;;44.20;26.97;;;2.10;99.90;;;;;;6343700;22;20257;-88
2022/12/15 13:47:11;;;;;;;40.30;26.17;;;2.00;99.90;;;;;;6345071;22;20181;-88
2022/12/15 13:49:43;;;;;;;44.67;26.93;;;2.00;99.90;;;;;;6318842;22;20195;-88
2022/12/15 13:52:26;;;;;;;43.17;26.43;;;2.00;99.90;;;;;;6317871;22;20154;-88
2022/12/15 13:54:56;;;;;;;42.83;24.87;;;2.00;99.90;;;;;;6316286;22;20631;-88
2022/12/15 13:57:24;;;;;;;37.27;23.37;;;1.90;99.90;;;;;;6309958;22;20202;-89
2022/12/15 14:00:06;;;;;;;41.00;24.47;;;1.90;99.90;;;;;;6316333;22;20150;-91
2022/12/15 14:02:37;;;;;;;37.07;22.60;;;1.90;99.90;;;;;;6344919;22;20143;-89
2022/12/15 14:05:20;;;;;;;36.23;22.33;;;1.90;99.90;;;;;;6317714;22;20189;-90
2022/12/15 14:07:55;;;;;;;35.30;21.67;;;1.80;99.90;;;;;;6317628;22;20262;-88
2022/12/15 14:10:31;;;;;;;35.63;21.20;;;1.80;99.90;;;;;;6318080;22;20138;-86
2022/12/15 14:13:04;;;;;;;33.60;20.73;;;1.80;99.90;;;;;;6313088;22;20202;-89
2022/12/15 14:15:31;;;;;;;36.23;22.23;;;1.80;99.90;;;;;;6314614;22;20201;-90
2022/12/15 14:18:00;;;;;;;38.37;22.80;;;1.80;99.90;;;;;;6312941;22;20256;-89
2022/12/15 14:20:37;;;;;;;36.60;22.17;;;1.70;99.90;;;;;;6315420;22;20173;-90
2022/12/15 14:23:17;;;;;;;37.83;22.57;;;1.70;99.90;;;;;;6315574;22;20157;-90
2022/12/15 14:25:55;;;;;;;36.80;21.93;;;1.70;99.90;;;;;;6315317;22;20158;-89
2022/12/15 14:28:24;;;;;;;40.20;21.93;;;1.60;99.90;;;;;;6315963;22;20271;-90
2022/12/15 14:30:50;;;;;;;36.20;21.77;;;1.60;99.90;;;;;;6316509;22;20158;-90
2022/12/15 14:33:18;;;;;;;36.50;21.97;;;1.50;99.90;;;;;;6316352;22;20201;-89
2022/12/15 14:35:46;;;;;;;36.70;21.60;;;1.50;99.90;;;;;;6314618;22;20162;-89
2022/12/15 14:38:27;;;;;;;38.47;22.10;;;1.50;99.90;;;;;;6314980;22;20206;-89
2022/12/15 14:40:56;;;;;;;38.67;22.77;;;1.30;99.90;;;;;;6341143;22;20153;-89
2022/12/15 14:43:30;;;;;;;35.00;21.30;;;1.20;99.90;;;;;;6314450;22;20179;-89
2022/12/15 14:46:07;;;;;;;33.20;19.97;;;1.20;99.90;;;;;;6314778;22;20173;-89
2022/12/15 14:48:37;;;;;;;38.93;21.00;;;1.10;99.90;;;;;;6314240;22;20173;-89
2022/12/15 14:51:04;;;;;;;33.83;21.07;;;1.00;99.90;;;;;;6314666;22;20147;-89
2022/12/15 14:53:37;;;;;;;34.53;21.20;;;1.00;99.90;;;;;;6314139;22;20162;-90
2022/12/15 14:56:32;;;;;;;36.07;21.03;;;1.00;99.90;;;;;;6315024;22;20652;-90
2022/12/15 14:59:15;;;;;;;35.13;20.00;;;0.90;99.90;;;;;;6282136;22;20161;-89
2022/12/15 15:01:58;;;;;;;34.70;19.60;;;0.90;99.90;;;;;;6314431;22;20595;-90
2022/12/15 15:04:30;;;;;;;32.87;19.10;;;0.90;99.90;;;;;;6314398;22;20253;-90
2022/12/15 15:06:59;;;;;;;33.77;19.90;;;0.90;99.90;;;;;;6314563;22;20182;-89
2022/12/15 15:09:31;;;;;;;33.47;18.47;;;0.90;99.90;;;;;;6314038;22;20237;-87
2022/12/15 15:12:03;;;;;;;34.80;19.77;;;0.90;99.90;;;;;;6314594;22;20147;-90
2022/12/15 15:14:38;;;;;;;34.63;19.63;;;0.90;99.90;;;;;;6314512;22;20208;-89
2022/12/15 15:17:20;;;;;;;35.60;21.07;;;0.90;99.90;;;;;;6314203;22;20185;-89
2022/12/15 15:19:50;;;;;;;32.53;18.67;;;0.80;99.90;;;;;;6314118;22;20160;-89
2022/12/15 15:22:40;;;;;;;33.47;18.73;;;0.80;99.90;;;;;;6311700;22;20190;-90
2022/12/15 15:25:40;;;;;;;29.27;18.07;;;0.80;99.90;;;;;;6314393;22;20190;-90
2022/12/15 15:28:17;;;;;;;33.10;18.90;;;0.80;99.90;;;;;;6232177;22;20231;-90
2022/12/15 15:30:52;;;;;;;33.43;19.53;;;0.80;99.90;;;;;;6314176;22;20146;-90
2022/12/15 15:33:18;;;;;;;39.70;20.93;;;0.80;99.90;;;;;;6314381;22;20158;-90
2022/12/15 15:35:48;;;;;;;33.17;18.63;;;0.80;99.90;;;;;;6313903;22;20180;-90
2022/12/15 15:38:29;;;;;;;35.90;19.10;;;0.80;99.90;;;;;;6313831;22;20181;-89
2022/12/15 15:40:58;;;;;;;33.63;19.53;;;0.80;99.90;;;;;;6340085;22;20164;-90
2022/12/15 15:43:25;;;;;;;39.40;20.33;;;0.80;99.90;;;;;;6313908;22;20173;-89
2022/12/15 15:45:59;;;;;;;37.30;19.80;;;0.70;99.90;;;;;;6314448;22;20161;-89
2022/12/15 15:48:30;;;;;;;36.23;19.90;;;0.80;99.90;;;;;;6314158;22;20267;-89
2022/12/15 15:50:56;;;;;;;36.07;20.27;;;0.80;99.90;;;;;;6313689;22;20181;-89
2022/12/15 15:53:23;;;;;;;39.17;20.87;;;0.70;99.90;;;;;;6312786;22;20246;-89
2022/12/15 15:55:53;;;;;;;39.70;22.47;;;0.70;99.90;;;;;;6312748;22;20233;-89